createdAt,value
2022-11-17T00:01:54.507Z,59.60
2022-11-17T00:04:21.369Z,60.20
2022-11-17T00:06:48.322Z,59.80
2022-11-17T00:09:17.295Z,59.90
2022-11-17T00:12:03.616Z,59.90
2022-11-17T00:14:33.438Z,60.50
2022-11-17T00:17:01.307Z,59.90
2022-11-17T00:19:46.530Z,59.90
2022-11-17T00:22:13.317Z,60.40
2022-11-17T00:24:39.967Z,59.60
2022-11-17T00:27:06.910Z,59.80
2022-11-17T00:29:38.545Z,60.10
2022-11-17T00:32:25.332Z,60.10
2022-11-17T00:34:52.042Z,61.00
2022-11-17T00:37:19.009Z,59.70
2022-11-17T00:39:45.757Z,60.40
2022-11-17T00:42:12.484Z,60.30
2022-11-17T00:44:39.259Z,60.20
2022-11-17T00:47:05.985Z,60.50
2022-11-17T00:49:32.768Z,60.40
2022-11-17T00:52:00.570Z,60.10
2022-11-17T00:54:27.377Z,60.50
2022-11-17T00:56:54.317Z,60.40
2022-11-17T00:59:21.268Z,60.80
2022-11-17T01:01:47.995Z,60.10
2022-11-17T01:04:15.746Z,60.90
2022-11-17T01:06:48.058Z,60.90
2022-11-17T01:09:22.145Z,60.30
2022-11-17T01:11:50.945Z,60.40
2022-11-17T01:14:27.085Z,60.30
2022-11-17T01:16:54.618Z,60.40
2022-11-17T01:19:22.696Z,60.40
2022-11-17T01:21:49.457Z,60.30
2022-11-17T01:24:17.316Z,61.90
2022-11-17T01:26:45.353Z,60.40
2022-11-17T01:29:14.930Z,60.40
2022-11-17T01:31:46.026Z,60.40
2022-11-17T01:34:12.911Z,60.30
2022-11-17T01:37:01.050Z,61.50
2022-11-17T01:39:29.329Z,60.80
2022-11-17T01:41:56.614Z,60.40
2022-11-17T01:44:41.780Z,61.50
2022-11-17T01:47:24.626Z,60.40
2022-11-17T01:49:58.127Z,60.30
2022-11-17T01:52:25.233Z,60.10
2022-11-17T01:54:55.396Z,61.00
2022-11-17T01:57:29.191Z,59.80
2022-11-17T02:00:05.356Z,60.40
2022-11-17T02:02:34.247Z,60.30
2022-11-17T02:05:03.765Z,60.30
2022-11-17T02:07:34.259Z,60.30
2022-11-17T02:10:01.646Z,60.30
2022-11-17T02:12:30.792Z,60.10
2022-11-17T02:14:57.668Z,60.60
2022-11-17T02:17:40.458Z,60.60
2022-11-17T02:20:46.191Z,60.20
2022-11-17T02:23:39.216Z,60.30
2022-11-17T02:26:18.344Z,60.20
2022-11-17T02:29:14.366Z,60.30
2022-11-17T02:32:13.239Z,60.30
2022-11-17T02:34:39.890Z,60.20
2022-11-17T02:37:16.997Z,60.30
2022-11-17T02:40:24.144Z,61.20
2022-11-17T02:43:22.978Z,60.30
2022-11-17T02:46:05.944Z,60.90
2022-11-17T02:48:53.207Z,60.30
2022-11-17T02:51:22.967Z,60.30
2022-11-17T02:53:56.268Z,60.90
2022-11-17T02:56:23.228Z,60.30
2022-11-17T02:58:54.674Z,61.20
2022-11-17T03:01:33.305Z,59.90
2022-11-17T03:04:23.769Z,60.30
2022-11-17T03:07:28.745Z,60.30
2022-11-17T03:10:19.415Z,60.30
2022-11-17T03:13:09.505Z,60.30
2022-11-17T03:15:55.251Z,60.90
2022-11-17T03:18:36.215Z,60.30
2022-11-17T03:21:29.955Z,60.80
2022-11-17T03:24:13.883Z,60.30
2022-11-17T03:26:45.801Z,60.40
2022-11-17T03:29:16.630Z,60.60
2022-11-17T03:31:47.334Z,60.10
2022-11-17T03:34:18.225Z,59.90
2022-11-17T03:36:51.614Z,60.70
2022-11-17T03:39:34.637Z,61.00
2022-11-17T03:42:14.368Z,60.20
2022-11-17T03:44:45.578Z,61.20
2022-11-17T03:47:15.566Z,60.30
2022-11-17T03:50:07.852Z,62.20
2022-11-17T03:52:36.492Z,60.30
2022-11-17T03:55:03.977Z,60.30
2022-11-17T03:57:40.529Z,60.30
2022-11-17T04:00:16.614Z,60.60
2022-11-17T04:02:48.686Z,60.20
2022-11-17T04:05:17.539Z,60.30
2022-11-17T04:07:46.627Z,60.20
2022-11-17T04:10:21.326Z,59.80
2022-11-17T04:13:07.542Z,60.10
2022-11-17T04:15:53.249Z,59.80
2022-11-17T04:18:20.638Z,60.20
2022-11-17T04:20:55.233Z,60.30
2022-11-17T04:23:23.519Z,60.10
2022-11-17T04:26:11.189Z,60.90
2022-11-17T04:28:41.975Z,60.10
2022-11-17T04:31:22.742Z,60.30
2022-11-17T04:34:01.610Z,60.20
2022-11-17T04:36:30.521Z,61.30
2022-11-17T04:38:59.347Z,61.30
2022-11-17T04:41:45.586Z,59.70
2022-11-17T04:44:14.057Z,60.20
2022-11-17T04:46:44.241Z,61.10
2022-11-17T04:49:12.354Z,60.60
2022-11-17T04:51:39.514Z,61.00
2022-11-17T04:54:08.590Z,60.50
2022-11-17T04:56:35.819Z,60.20
2022-11-17T04:59:03.004Z,59.80
2022-11-17T05:01:30.369Z,59.90
2022-11-17T05:04:05.419Z,61.00
2022-11-17T05:06:34.703Z,60.60
2022-11-17T05:09:04.339Z,59.80
2022-11-17T05:11:49.935Z,59.60
2022-11-17T05:14:19.350Z,60.50
2022-11-17T05:17:09.437Z,60.20
2022-11-17T05:19:37.437Z,60.30
2022-11-17T05:22:24.968Z,60.80
2022-11-17T05:24:52.591Z,60.30
2022-11-17T05:27:20.263Z,60.00
2022-11-17T05:29:47.141Z,61.00
2022-11-17T05:32:13.997Z,60.90
2022-11-17T05:34:40.824Z,60.70
2022-11-17T05:37:07.550Z,60.60
2022-11-17T05:39:34.377Z,60.60
2022-11-17T05:42:01.112Z,59.90
2022-11-17T05:44:27.825Z,59.80
2022-11-17T05:46:54.563Z,60.90
2022-11-17T05:49:21.504Z,60.10
2022-11-17T05:51:52.482Z,60.60
2022-11-17T05:54:20.033Z,59.90
2022-11-17T05:56:57.154Z,60.90
2022-11-17T05:59:37.914Z,60.30
2022-11-17T06:02:16.337Z,59.90
2022-11-17T06:04:43.859Z,59.70
2022-11-17T06:07:11.056Z,61.10
2022-11-17T06:09:41.473Z,60.60
2022-11-17T06:12:08.780Z,60.50
2022-11-17T06:14:39.018Z,59.40
2022-11-17T06:17:13.463Z,60.30
2022-11-17T06:19:46.085Z,59.90
2022-11-17T06:22:13.651Z,60.30
2022-11-17T06:24:44.717Z,60.10
2022-11-17T06:27:15.365Z,59.50
2022-11-17T06:29:44.970Z,60.30
2022-11-17T06:32:17.361Z,60.50
2022-11-17T06:34:51.979Z,60.30
2022-11-17T06:37:21.867Z,60.20
2022-11-17T06:39:48.565Z,59.90
2022-11-17T06:42:15.273Z,60.50
2022-11-17T06:44:42.174Z,59.90
2022-11-17T06:47:08.916Z,61.20
2022-11-17T06:49:35.634Z,59.70
2022-11-17T06:52:02.354Z,60.00
2022-11-17T06:54:29.159Z,60.90
2022-11-17T06:56:57.663Z,59.90
2022-11-17T06:59:24.531Z,59.30
2022-11-17T07:01:51.382Z,61.00
2022-11-17T07:04:18.193Z,60.30
2022-11-17T07:06:44.935Z,60.00
2022-11-17T07:09:11.769Z,60.30
2022-11-17T07:11:38.519Z,59.30
2022-11-17T07:14:05.602Z,59.50
2022-11-17T07:16:32.655Z,59.30
2022-11-17T07:18:59.752Z,60.00
2022-11-17T07:21:26.690Z,59.70
2022-11-17T07:23:53.601Z,59.80
2022-11-17T07:26:20.432Z,59.30
2022-11-17T07:28:47.165Z,60.50
2022-11-17T07:31:14.032Z,59.30
2022-11-17T07:33:40.819Z,61.00
2022-11-17T07:36:10.187Z,60.80
2022-11-17T07:38:39.294Z,60.50
2022-11-17T07:41:07.831Z,61.30
2022-11-17T07:43:35.168Z,61.90
2022-11-17T07:46:06.295Z,62.20
2022-11-17T07:48:33.939Z,61.50
2022-11-17T07:51:03.073Z,63.30
2022-11-17T07:53:33.459Z,62.40
2022-11-17T07:56:05.044Z,63.70
2022-11-17T08:01:58.160Z,60.60
2022-11-17T08:04:24.937Z,60.50
2022-11-17T08:06:52.109Z,61.60
2022-11-17T08:09:19.095Z,62.80
2022-11-17T08:11:45.828Z,62.20
2022-11-17T08:14:12.746Z,62.80
2022-11-17T08:16:39.521Z,62.50
2022-11-17T08:19:06.565Z,62.50
2022-11-17T08:21:36.155Z,61.70
2022-11-17T08:24:03.232Z,62.80
2022-11-17T08:26:30.156Z,62.90
2022-11-17T08:28:59.064Z,61.60
2022-11-17T08:31:26.085Z,62.70
2022-11-17T08:43:01.564Z,59.40
2022-11-17T08:45:54.097Z,61.20
2022-11-17T08:51:11.884Z,59.50
2022-11-17T08:53:38.725Z,60.80
2022-11-17T08:56:11.304Z,62.50
2022-11-17T08:58:44.890Z,60.60
2022-11-17T09:01:15.769Z,61.60
2022-11-17T09:03:44.157Z,60.60
2022-11-17T09:06:12.385Z,60.40
2022-11-17T09:08:47.545Z,60.30
2022-11-17T09:11:16.650Z,60.40
2022-11-17T09:13:45.537Z,60.50
2022-11-17T09:16:13.301Z,61.20
2022-11-17T09:18:41.535Z,60.40
2022-11-17T09:21:11.401Z,62.40
2022-11-17T09:23:38.993Z,60.10
2022-11-17T09:26:08.549Z,61.40
2022-11-17T09:28:36.098Z,60.00
2022-11-17T09:31:11.525Z,61.50
2022-11-17T09:33:39.375Z,59.80
2022-11-17T09:36:09.415Z,61.00
2022-11-17T09:38:37.345Z,60.50
2022-11-17T09:41:35.666Z,60.00
2022-11-17T09:44:27.231Z,59.50
2022-11-17T09:46:59.787Z,59.50
2022-11-17T09:49:57.013Z,61.00
2022-11-17T09:53:04.279Z,59.50
2022-11-17T09:55:36.001Z,60.20
2022-11-17T09:58:08.570Z,59.80
2022-11-17T10:00:39.104Z,61.20
2022-11-17T10:03:19.987Z,59.70
2022-11-17T10:05:47.740Z,59.90
2022-11-17T10:08:22.195Z,59.10
2022-11-17T10:10:51.558Z,59.80
2022-11-17T10:13:33.927Z,59.90
2022-11-17T10:16:06.535Z,60.60
2022-11-17T10:18:38.154Z,59.50
2022-11-17T10:21:06.779Z,59.60
2022-11-17T10:23:46.872Z,59.60
2022-11-17T10:26:15.923Z,59.50
2022-11-17T10:28:42.957Z,59.60
2022-11-17T10:31:15.416Z,61.20
2022-11-17T10:33:49.301Z,59.90
2022-11-17T10:36:28.933Z,60.10
2022-11-17T10:38:58.682Z,58.90
2022-11-17T10:41:45.171Z,59.40
2022-11-17T10:44:30.050Z,58.90
2022-11-17T10:47:02.936Z,60.30
2022-11-17T10:49:34.115Z,59.20
2022-11-17T10:52:16.824Z,60.00
2022-11-17T10:54:44.217Z,59.10
2022-11-17T10:57:21.082Z,60.20
2022-11-17T10:59:58.272Z,59.50
2022-11-17T11:02:36.388Z,59.50
2022-11-17T11:05:10.724Z,59.00
2022-11-17T11:07:38.073Z,58.80
2022-11-17T11:10:18.285Z,59.20
2022-11-17T11:12:56.795Z,59.60
2022-11-17T11:15:25.265Z,58.70
2022-11-17T11:17:52.370Z,58.80
2022-11-17T11:20:24.253Z,60.50
2022-11-17T11:23:09.311Z,59.30
2022-11-17T11:25:51.334Z,58.60
2022-11-17T11:28:24.157Z,59.10
2022-11-17T11:31:11.860Z,59.90
2022-11-17T11:33:50.865Z,60.60
2022-11-17T11:36:31.139Z,59.40
2022-11-17T11:39:13.547Z,59.30
2022-11-17T11:42:07.677Z,60.00
2022-11-17T11:45:01.079Z,59.00
2022-11-17T11:48:00.121Z,58.40
2022-11-17T11:50:42.784Z,58.40
2022-11-17T11:53:32.415Z,58.50
2022-11-17T11:56:10.073Z,58.40
2022-11-17T11:58:44.844Z,58.80
2022-11-17T12:01:12.132Z,59.10
2022-11-17T12:04:14.283Z,60.00
2022-11-17T12:07:00.734Z,58.30
2022-11-17T12:09:58.149Z,59.50
2022-11-17T12:12:37.088Z,59.50
2022-11-17T12:15:20.288Z,59.20
2022-11-17T12:18:01.101Z,58.30
2022-11-17T12:20:31.028Z,58.30
2022-11-17T12:23:16.536Z,59.60
2022-11-17T12:25:54.333Z,59.40
2022-11-17T12:28:39.756Z,58.90
2022-11-17T12:31:10.959Z,58.20
2022-11-17T12:33:53.222Z,58.80
2022-11-17T12:36:32.529Z,60.10
2022-11-17T12:39:01.827Z,59.10
2022-11-17T12:41:47.288Z,59.20
2022-11-17T12:44:32.478Z,59.80
2022-11-17T12:47:22.223Z,59.20
2022-11-17T12:50:13.275Z,58.10
2022-11-17T12:52:55.169Z,58.10
2022-11-17T12:55:25.817Z,58.10
2022-11-17T12:58:17.285Z,59.50
2022-11-17T13:01:11.508Z,58.10
2022-11-17T13:03:49.572Z,58.00
2022-11-17T13:06:34.917Z,59.20
2022-11-17T13:09:06.375Z,59.70
2022-11-17T13:11:34.283Z,59.00
2022-11-17T13:14:15.797Z,58.00
2022-11-17T13:16:49.016Z,57.80
2022-11-17T13:19:33.516Z,58.50
2022-11-17T13:22:04.532Z,57.80
2022-11-17T13:24:37.558Z,58.20
2022-11-17T13:27:07.476Z,57.80
2022-11-17T13:29:34.691Z,58.10
2022-11-17T13:32:16.855Z,58.70
2022-11-17T13:35:23.317Z,58.00
2022-11-17T13:38:15.852Z,57.60
2022-11-17T13:40:43.715Z,58.30
2022-11-17T13:43:15.076Z,57.80
2022-11-17T13:45:43.348Z,57.50
2022-11-17T13:48:32.947Z,58.40
2022-11-17T13:51:27.731Z,58.40
2022-11-17T13:54:12.073Z,57.50
2022-11-17T13:56:40.788Z,57.50
2022-11-17T13:59:28.868Z,58.10
2022-11-17T14:02:20.627Z,57.90
2022-11-17T14:05:09.266Z,57.30
2022-11-17T14:07:38.237Z,59.00
2022-11-17T14:10:33.647Z,58.50
2022-11-17T14:13:05.870Z,58.20
2022-11-17T14:15:36.604Z,57.50
2022-11-17T14:18:18.600Z,58.00
2022-11-17T14:20:45.538Z,58.10
2022-11-17T14:23:12.224Z,59.30
2022-11-17T14:25:39.959Z,58.90
2022-11-17T14:28:17.286Z,58.70
2022-11-17T14:30:47.691Z,58.00
2022-11-17T14:33:14.532Z,59.20
2022-11-17T14:35:41.863Z,58.90
2022-11-17T14:38:18.394Z,58.40
2022-11-17T14:40:45.331Z,58.50
2022-11-17T14:43:12.279Z,58.50
2022-11-17T14:45:39.027Z,58.00
2022-11-17T14:48:06.138Z,59.10
2022-11-17T14:50:33.082Z,57.90
2022-11-17T14:53:00.104Z,58.00
2022-11-17T14:55:27.477Z,58.50
2022-11-17T14:57:54.569Z,58.70
2022-11-17T15:00:21.491Z,58.10
2022-11-17T15:02:48.860Z,58.60
2022-11-17T15:05:15.783Z,58.30
2022-11-17T15:07:43.401Z,58.80
2022-11-17T15:10:10.724Z,58.40
2022-11-17T15:12:37.648Z,59.50
2022-11-17T15:15:05.165Z,58.80
2022-11-17T15:17:32.043Z,58.60
2022-11-17T15:19:58.907Z,59.10
2022-11-17T15:22:25.770Z,57.80
2022-11-17T15:24:52.649Z,59.80
2022-11-17T15:27:19.423Z,59.60
2022-11-17T15:29:46.258Z,59.80
2022-11-17T15:32:13.034Z,58.20
2022-11-17T15:34:39.924Z,59.00
2022-11-17T15:37:07.067Z,58.70
2022-11-17T15:39:33.868Z,58.50
2022-11-17T15:42:00.769Z,58.70
2022-11-17T15:44:27.760Z,59.00
2022-11-17T15:46:54.672Z,59.90
2022-11-17T15:49:21.553Z,59.00
2022-11-17T15:51:48.283Z,59.10
2022-11-17T15:54:20.253Z,59.20
2022-11-17T15:56:47.468Z,58.70
2022-11-17T15:59:14.777Z,59.40
2022-11-17T16:01:42.000Z,59.10
2022-11-17T16:04:11.425Z,58.80
2022-11-17T16:06:40.280Z,58.40
2022-11-17T16:09:07.817Z,57.90
2022-11-17T16:11:35.887Z,58.00
2022-11-17T16:14:03.479Z,57.50
2022-11-17T16:16:33.176Z,58.30
2022-11-17T16:19:00.260Z,58.10
2022-11-17T16:21:27.303Z,58.00
2022-11-17T16:23:56.426Z,59.00
2022-11-17T16:26:25.688Z,57.40
2022-11-17T16:28:57.520Z,57.50
2022-11-17T16:31:26.983Z,58.10
2022-11-17T16:34:01.568Z,57.80
2022-11-17T16:36:37.370Z,57.40
2022-11-17T16:39:07.120Z,57.40
2022-11-17T16:41:36.471Z,57.80
2022-11-17T16:44:14.046Z,58.60
2022-11-17T16:46:48.391Z,58.10
2022-11-17T16:49:17.837Z,57.90
2022-11-17T16:51:50.071Z,57.80
2022-11-17T16:54:18.535Z,57.80
2022-11-17T16:56:45.751Z,58.80
2022-11-17T16:59:12.892Z,58.60
2022-11-17T17:01:39.843Z,58.80
2022-11-17T17:04:09.328Z,57.80
2022-11-17T17:06:41.911Z,57.50
2022-11-17T17:09:10.673Z,57.20
2022-11-17T17:11:38.201Z,57.80
2022-11-17T17:14:08.251Z,58.20
2022-11-17T17:16:36.387Z,57.70
2022-11-17T17:19:05.529Z,58.00
2022-11-17T17:21:33.316Z,57.20
2022-11-17T17:24:00.479Z,58.60
2022-11-17T17:26:29.333Z,58.60
2022-11-17T17:28:58.275Z,57.40
2022-11-17T17:31:26.468Z,58.00
2022-11-17T17:33:54.800Z,57.50
2022-11-17T17:36:24.143Z,58.70
2022-11-17T17:38:55.898Z,58.30
2022-11-17T17:41:27.364Z,57.50
2022-11-17T17:43:59.874Z,57.50
2022-11-17T17:46:29.669Z,57.80
2022-11-17T17:48:57.277Z,57.00
2022-11-17T17:51:26.274Z,58.30
2022-11-17T17:53:55.716Z,57.20
2022-11-17T17:56:23.545Z,57.80
2022-11-17T17:58:53.692Z,58.60
2022-11-17T18:01:24.350Z,57.90
2022-11-17T18:03:53.686Z,56.80
2022-11-17T18:06:22.171Z,57.30
2022-11-17T18:08:50.436Z,59.10
2022-11-17T18:11:19.472Z,59.60
2022-11-17T18:13:51.010Z,57.60
2022-11-17T18:16:21.535Z,57.00
2022-11-17T18:18:49.031Z,57.40
2022-11-17T18:21:18.584Z,57.20
2022-11-17T18:23:45.882Z,56.90
2022-11-17T18:26:19.335Z,58.00
2022-11-17T18:29:00.099Z,57.00
2022-11-17T18:31:29.627Z,56.70
2022-11-17T18:33:59.196Z,58.00
2022-11-17T18:36:26.927Z,56.40
2022-11-17T18:38:54.409Z,57.10
2022-11-17T18:41:22.199Z,58.30
2022-11-17T18:43:49.360Z,57.30
2022-11-17T18:46:21.864Z,58.10
2022-11-17T18:48:53.395Z,56.70
2022-11-17T18:51:22.605Z,57.10
2022-11-17T18:53:51.434Z,57.70
2022-11-17T18:56:23.071Z,58.00
2022-11-17T18:58:50.199Z,56.90
2022-11-17T19:01:22.287Z,58.00
2022-11-17T19:03:52.239Z,56.70
2022-11-17T19:06:21.173Z,58.10
2022-11-17T19:08:48.197Z,57.40
2022-11-17T19:11:16.347Z,58.20
2022-11-17T19:13:43.882Z,57.00
2022-11-17T19:16:19.128Z,58.20
2022-11-17T19:18:48.447Z,57.10
2022-11-17T19:21:25.470Z,56.70
2022-11-17T19:23:53.315Z,56.60
2022-11-17T19:26:25.924Z,57.00
2022-11-17T19:28:56.865Z,56.80
2022-11-17T19:31:24.191Z,57.10
2022-11-17T19:33:51.188Z,57.90
2022-11-17T19:36:23.767Z,58.30
2022-11-17T19:38:52.533Z,56.10
2022-11-17T19:41:21.917Z,56.50
2022-11-17T19:43:51.747Z,57.40
2022-11-17T19:46:18.565Z,57.80
2022-11-17T19:48:45.687Z,59.00
2022-11-17T19:51:24.215Z,58.10
2022-11-17T19:53:56.364Z,56.70
2022-11-17T19:56:24.720Z,57.00
2022-11-17T19:58:52.404Z,56.90
2022-11-17T20:01:27.886Z,57.30
2022-11-17T20:03:56.389Z,56.60
2022-11-17T20:06:27.139Z,57.10
2022-11-17T20:08:55.199Z,56.90
2022-11-17T20:11:24.814Z,57.10
2022-11-17T20:13:51.624Z,57.20
2022-11-17T20:16:21.369Z,57.10
2022-11-17T20:18:56.040Z,56.60
2022-11-17T20:21:23.886Z,56.40
2022-11-17T20:23:51.116Z,56.70
2022-11-17T20:26:20.880Z,56.80
2022-11-17T20:28:48.364Z,56.90
2022-11-17T20:31:20.937Z,57.00
2022-11-17T20:33:48.917Z,56.40
2022-11-17T20:36:18.942Z,58.50
2022-11-17T20:38:55.952Z,57.00
2022-11-17T20:41:23.941Z,57.00
2022-11-17T20:43:52.724Z,57.00
2022-11-17T20:46:20.335Z,57.10
2022-11-17T20:48:48.036Z,57.00
2022-11-17T20:51:17.418Z,57.40
2022-11-17T20:53:44.553Z,57.30
2022-11-17T20:56:13.054Z,57.80
2022-11-17T20:58:40.357Z,56.90
2022-11-17T21:01:11.489Z,56.70
2022-11-17T21:03:38.633Z,57.80
2022-11-17T21:06:06.367Z,57.70
2022-11-17T21:08:35.756Z,56.90
2022-11-17T21:11:08.407Z,56.30
2022-11-17T21:13:36.298Z,56.90
2022-11-17T21:16:11.330Z,57.10
2022-11-17T21:18:44.143Z,56.40
2022-11-17T21:21:11.461Z,56.90
2022-11-17T21:23:39.792Z,57.70
2022-11-17T21:26:08.328Z,57.00
2022-11-17T21:28:36.863Z,57.90
2022-11-17T21:31:10.337Z,57.00
2022-11-17T21:33:37.657Z,57.00
2022-11-17T21:36:07.059Z,57.60
2022-11-17T21:38:34.079Z,56.80
2022-11-17T21:41:05.491Z,58.70
2022-11-17T21:43:32.486Z,56.90
2022-11-17T21:46:22.424Z,58.20
2022-11-17T21:48:50.299Z,56.40
2022-11-17T21:51:33.179Z,57.20
2022-11-17T21:54:02.289Z,56.40
2022-11-17T21:56:29.850Z,56.80
2022-11-17T21:58:57.920Z,58.40
2022-11-17T22:01:25.194Z,57.80
2022-11-17T22:03:52.149Z,57.80
2022-11-17T22:06:21.688Z,57.70
2022-11-17T22:08:49.222Z,56.40
2022-11-17T22:11:35.085Z,57.80
2022-11-17T22:14:15.136Z,56.70
2022-11-17T22:16:46.763Z,56.40
2022-11-17T22:19:15.929Z,56.40
2022-11-17T22:21:44.131Z,56.30
2022-11-17T22:24:12.289Z,57.30
2022-11-17T22:26:41.155Z,56.90
2022-11-17T22:29:13.709Z,57.50
2022-11-17T22:31:41.030Z,57.00
2022-11-17T22:34:07.877Z,58.30
2022-11-17T22:36:34.745Z,57.80
2022-11-17T22:39:01.588Z,58.30
2022-11-17T22:41:28.436Z,58.30
2022-11-17T22:43:56.968Z,57.90
2022-11-17T22:46:26.570Z,57.40
2022-11-17T22:48:53.662Z,57.00
2022-11-17T22:51:39.811Z,57.80
2022-11-17T22:54:07.901Z,56.80
2022-11-17T22:56:35.068Z,57.20
2022-11-17T22:59:01.788Z,57.10
2022-11-17T23:01:28.927Z,56.70
2022-11-17T23:03:55.833Z,57.80
2022-11-17T23:06:24.056Z,57.90
2022-11-17T23:08:51.196Z,57.50
2022-11-17T23:14:10.411Z,57.20
2022-11-17T23:16:37.951Z,57.10
2022-11-17T23:19:05.596Z,56.70
2022-11-17T23:21:32.524Z,58.50
2022-11-17T23:23:59.343Z,57.00
2022-11-17T23:26:26.129Z,58.00
2022-11-17T23:28:52.951Z,57.80
2022-11-17T23:31:20.394Z,58.00
2022-11-17T23:33:47.839Z,58.10
2022-11-17T23:36:20.348Z,58.60
2022-11-17T23:38:48.477Z,56.60
2022-11-17T23:41:17.687Z,57.30
2022-11-17T23:43:44.976Z,57.10
2022-11-17T23:46:14.989Z,57.70
2022-11-17T23:48:42.418Z,57.50
2022-11-17T23:51:12.401Z,57.40
2022-11-17T23:53:39.343Z,57.10
2022-11-17T23:56:06.567Z,57.90
2022-11-17T23:58:33.547Z,57.00
